createdAt,value
2022-12-24T00:00:22.188Z,17.00
2022-12-24T00:04:26.902Z,21.47
2022-12-24T00:08:30.518Z,18.73
2022-12-24T00:12:33.948Z,22.90
2022-12-24T00:16:37.594Z,21.27
2022-12-24T00:20:42.669Z,19.90
2022-12-24T00:24:46.058Z,20.10
2022-12-24T00:28:49.341Z,17.17
2022-12-24T00:32:52.735Z,17.33
2022-12-24T00:36:57.401Z,21.13
2022-12-24T00:41:01.866Z,17.73
2022-12-24T00:45:05.523Z,24.40
2022-12-24T00:49:10.001Z,17.63
2022-12-24T00:53:14.735Z,17.87
2022-12-24T00:57:18.188Z,22.20
2022-12-24T01:01:22.005Z,15.17
2022-12-24T01:05:25.602Z,15.37
2022-12-24T01:09:30.333Z,18.43
2022-12-24T01:13:34.136Z,20.10
2022-12-24T01:17:37.763Z,17.67
2022-12-24T01:21:41.386Z,16.40
2022-12-24T01:25:46.584Z,15.57
2022-12-24T01:29:49.975Z,15.30
2022-12-24T01:33:53.247Z,16.30
2022-12-24T01:37:56.522Z,12.77
2022-12-24T01:42:19.238Z,17.20
2022-12-24T01:46:27.563Z,14.10
2022-12-24T01:50:30.892Z,15.80
2022-12-24T01:54:37.619Z,13.23
2022-12-24T01:58:47.832Z,15.60
2022-12-24T02:02:54.273Z,17.37
2022-12-24T02:07:00.316Z,12.40
2022-12-24T02:11:03.594Z,15.60
2022-12-24T02:15:11.832Z,14.63
2022-12-24T02:19:43.632Z,15.37
2022-12-24T02:24:09.915Z,13.13
2022-12-24T02:28:24.667Z,12.60
2022-12-24T02:32:39.519Z,13.43
2022-12-24T02:36:47.921Z,12.03
2022-12-24T02:40:54.968Z,15.43
2022-12-24T02:45:02.962Z,11.30
2022-12-24T02:49:07.835Z,10.37
2022-12-24T02:53:11.826Z,11.87
2022-12-24T02:57:21.750Z,10.67
2022-12-24T03:01:39.168Z,15.50
2022-12-24T03:05:51.296Z,9.80
2022-12-24T03:10:03.748Z,9.83
2022-12-24T03:18:33.566Z,13.37
2022-12-24T03:22:39.127Z,12.43
2022-12-24T03:26:44.013Z,9.63
2022-12-24T03:30:49.600Z,8.10
2022-12-24T03:34:53.436Z,12.83
2022-12-24T03:38:58.339Z,18.00
2022-12-24T03:43:02.424Z,12.43
2022-12-24T03:47:06.199Z,20.37
2022-12-24T03:51:19.253Z,21.00
2022-12-24T03:55:24.394Z,15.20
2022-12-24T03:59:28.955Z,18.27
2022-12-24T04:03:32.579Z,14.67
2022-12-24T04:07:36.815Z,16.20
2022-12-24T04:11:41.729Z,13.90
2022-12-24T04:15:45.299Z,14.17
2022-12-24T04:19:49.277Z,18.33
2022-12-24T04:23:52.824Z,17.00
2022-12-24T04:27:57.997Z,15.47
2022-12-24T04:32:01.665Z,16.20
2022-12-24T04:36:08.548Z,17.87
2022-12-24T04:40:12.652Z,15.60
2022-12-24T04:44:17.849Z,16.67
2022-12-24T04:48:21.424Z,12.37
2022-12-24T04:52:25.115Z,14.83
2022-12-24T04:56:30.917Z,12.10
2022-12-24T05:00:36.158Z,16.03
2022-12-24T05:04:39.966Z,18.47
2022-12-24T05:08:44.555Z,14.63
2022-12-24T05:12:48.052Z,15.60
2022-12-24T05:16:53.014Z,12.23
2022-12-24T05:20:59.878Z,12.30
2022-12-24T05:30:49.509Z,37.10
2022-12-24T05:34:55.993Z,20.03
2022-12-24T05:39:00.168Z,22.27
2022-12-24T05:43:03.688Z,21.27
2022-12-24T05:47:07.403Z,23.20
2022-12-24T05:51:15.091Z,23.07
2022-12-24T05:55:18.679Z,18.10
2022-12-24T05:59:22.370Z,44.33
2022-12-24T06:03:26.116Z,29.67
2022-12-24T06:07:31.695Z,27.83
2022-12-24T06:11:35.383Z,17.03
2022-12-24T06:15:38.995Z,18.13
2022-12-24T06:19:42.536Z,19.03
2022-12-24T06:23:48.434Z,14.77
2022-12-24T06:27:52.839Z,18.37
2022-12-24T06:31:57.298Z,27.90
2022-12-24T06:36:01.052Z,27.13
2022-12-24T06:40:07.448Z,17.03
2022-12-24T06:44:11.192Z,23.10
2022-12-24T06:48:15.136Z,16.17
2022-12-24T06:52:18.872Z,13.87
2022-12-24T06:56:24.145Z,15.27
2022-12-24T07:00:27.942Z,14.23
2022-12-24T07:04:32.353Z,14.17
2022-12-24T07:08:36.616Z,14.57
2022-12-24T07:12:41.984Z,13.77
2022-12-24T07:17:27.825Z,12.23
2022-12-24T07:21:32.552Z,15.63
2022-12-24T07:25:35.802Z,13.80
2022-12-24T07:29:42.512Z,14.10
2022-12-24T07:33:46.123Z,15.93
2022-12-24T07:37:49.646Z,11.40
2022-12-24T07:41:52.953Z,12.37
2022-12-24T07:45:59.675Z,15.90
2022-12-24T07:50:03.562Z,15.17
2022-12-24T07:54:06.969Z,14.63
2022-12-24T07:58:10.203Z,15.57
2022-12-24T08:02:18.381Z,14.10
2022-12-24T08:06:22.249Z,37.13
2022-12-24T08:10:27.759Z,21.63
2022-12-24T08:14:31.228Z,27.30
2022-12-24T08:18:36.197Z,35.33
2022-12-24T08:22:39.575Z,36.70
2022-12-24T08:26:43.124Z,29.30
2022-12-24T08:30:47.187Z,24.63
2022-12-24T08:34:51.868Z,50.70
2022-12-24T08:38:55.632Z,46.40
2022-12-24T08:42:59.313Z,31.23
2022-12-24T08:47:03.761Z,37.90
2022-12-24T08:51:14.216Z,32.00
2022-12-24T08:55:17.582Z,22.00
2022-12-24T08:59:21.035Z,20.17
2022-12-24T09:03:27.731Z,22.93
2022-12-24T09:07:32.932Z,22.37
2022-12-24T09:11:37.198Z,22.80
2022-12-24T09:15:40.646Z,20.00
2022-12-24T09:19:45.025Z,48.30
2022-12-24T09:23:49.947Z,25.43
2022-12-24T09:27:53.487Z,26.40
2022-12-24T09:31:58.360Z,23.50
2022-12-24T09:36:02.773Z,28.10
2022-12-24T09:40:17.740Z,29.67
2022-12-24T09:44:32.604Z,28.10
2022-12-24T09:48:39.738Z,21.80
2022-12-24T09:52:45.822Z,18.17
2022-12-24T09:56:51.045Z,19.60
2022-12-24T10:00:55.007Z,18.47
2022-12-24T10:04:58.387Z,22.67
2022-12-24T10:09:11.657Z,22.60
2022-12-24T10:13:28.381Z,22.93
2022-12-24T10:17:48.582Z,23.50
2022-12-24T10:22:03.886Z,21.03
2022-12-24T10:26:17.932Z,24.90
2022-12-24T10:30:24.457Z,30.63
2022-12-24T10:34:32.749Z,31.70
2022-12-24T10:38:36.267Z,25.70
2022-12-24T10:42:48.396Z,22.33
2022-12-24T10:46:56.444Z,28.63
2022-12-24T10:51:04.358Z,26.30
2022-12-24T10:55:14.044Z,24.10
2022-12-24T10:59:28.722Z,27.67
2022-12-24T11:03:36.049Z,22.63
2022-12-24T11:07:39.667Z,15.13
2022-12-24T11:11:43.025Z,17.17
2022-12-24T11:15:46.420Z,13.10
2022-12-24T11:19:52.120Z,12.03
2022-12-24T11:23:57.909Z,12.00
2022-12-24T11:28:13.456Z,13.57
2022-12-24T11:32:20.049Z,13.03
2022-12-24T11:36:27.703Z,12.77
2022-12-24T11:40:35.624Z,12.20
2022-12-24T11:44:49.341Z,14.40
2022-12-24T11:49:22.906Z,17.00
2022-12-24T11:53:40.209Z,13.00
2022-12-24T11:57:51.869Z,11.70
2022-12-24T12:01:59.956Z,12.30
2022-12-24T12:06:12.458Z,15.87
2022-12-24T12:10:22.403Z,15.10
2022-12-24T12:14:33.565Z,9.80
2022-12-24T12:18:42.392Z,10.40
2022-12-24T12:22:56.551Z,12.10
2022-12-24T12:27:15.062Z,8.97
2022-12-24T12:31:25.221Z,11.20
2022-12-24T12:35:34.193Z,8.60
2022-12-24T12:39:40.767Z,9.00
2022-12-24T12:44:20.079Z,7.47
2022-12-24T12:48:49.435Z,7.17
2022-12-24T12:53:06.050Z,5.47
2022-12-24T12:57:13.683Z,6.00
2022-12-24T13:01:32.036Z,5.83
2022-12-24T13:06:02.380Z,6.73
2022-12-24T13:10:19.659Z,6.07
2022-12-24T13:14:42.273Z,6.47
2022-12-24T13:19:16.299Z,6.30
2022-12-24T13:23:22.166Z,3.67
2022-12-24T13:27:27.624Z,4.60
2022-12-24T13:31:31.090Z,8.30
2022-12-24T13:35:58.341Z,4.40
2022-12-24T13:40:24.038Z,7.60
2022-12-24T13:44:33.220Z,5.80
2022-12-24T13:48:36.961Z,5.90
2022-12-24T13:53:22.004Z,6.57
2022-12-24T14:08:28.369Z,9.37
2022-12-24T14:13:29.976Z,7.00
2022-12-24T14:23:37.837Z,6.83
2022-12-24T14:28:49.278Z,8.20
2022-12-24T14:33:29.754Z,8.80
2022-12-24T14:38:14.903Z,9.30
2022-12-24T14:43:16.640Z,8.87
2022-12-24T14:47:44.047Z,6.20
2022-12-24T14:52:54.701Z,6.90
2022-12-24T15:02:32.238Z,8.23
2022-12-24T15:06:41.945Z,10.03
2022-12-24T15:10:52.275Z,8.50
2022-12-24T15:14:57.109Z,8.40
2022-12-24T15:19:09.883Z,10.90
2022-12-24T15:23:20.426Z,7.40
2022-12-24T15:27:25.748Z,7.63
2022-12-24T15:31:30.822Z,8.87
2022-12-24T15:35:46.716Z,8.63
2022-12-24T15:39:57.015Z,12.20
2022-12-24T15:44:04.463Z,6.57
2022-12-24T15:48:12.066Z,7.60
2022-12-24T15:52:20.480Z,9.10
2022-12-24T15:56:39.221Z,9.00
2022-12-24T16:00:43.051Z,17.83
